createdAt,value
2017-12-31T00:00:03.938Z,10.70
2017-12-31T00:02:32.345Z,11.47
2017-12-31T00:05:00.674Z,11.37
2017-12-31T00:07:28.211Z,11.47
2017-12-31T00:09:56.350Z,11.50
2017-12-31T00:12:24.676Z,11.13
2017-12-31T00:14:52.900Z,9.77
2017-12-31T00:17:20.547Z,10.80
2017-12-31T00:19:48.941Z,10.50
2017-12-31T00:22:16.809Z,10.20
2017-12-31T00:24:45.494Z,9.97
2017-12-31T00:27:13.107Z,10.30
2017-12-31T00:29:41.176Z,9.70
2017-12-31T00:32:08.762Z,11.07
2017-12-31T00:34:36.639Z,9.87
2017-12-31T00:37:04.237Z,9.23
2017-12-31T00:39:32.650Z,9.10
2017-12-31T00:42:00.794Z,7.90
2017-12-31T00:44:28.702Z,7.50
2017-12-31T00:46:59.690Z,8.93
2017-12-31T00:49:30.364Z,8.17
2017-12-31T00:51:58.452Z,9.10
2017-12-31T00:54:26.054Z,8.60
2017-12-31T00:56:54.115Z,9.00
2017-12-31T00:59:22.416Z,9.77
2017-12-31T01:01:50.664Z,8.33
2017-12-31T01:04:18.221Z,9.33
2017-12-31T01:06:46.362Z,9.03
2017-12-31T01:09:13.998Z,8.73
2017-12-31T01:11:42.444Z,9.60
2017-12-31T01:14:11.286Z,9.23
2017-12-31T01:16:38.999Z,9.63
2017-12-31T01:19:06.556Z,9.50
2017-12-31T01:21:34.242Z,9.13
2017-12-31T01:24:03.146Z,8.93
2017-12-31T01:26:30.672Z,8.83
2017-12-31T01:28:58.191Z,9.50
2017-12-31T01:31:25.744Z,11.40
2017-12-31T01:33:53.488Z,9.80
2017-12-31T01:36:21.151Z,10.17
2017-12-31T01:38:48.725Z,12.13
2017-12-31T01:41:16.440Z,10.00
2017-12-31T01:43:45.395Z,11.00
2017-12-31T01:46:13.571Z,9.80
2017-12-31T01:48:53.896Z,12.00
2017-12-31T01:51:24.702Z,11.60
2017-12-31T01:53:53.654Z,12.13
2017-12-31T01:56:21.545Z,11.77
2017-12-31T01:58:49.191Z,11.87
2017-12-31T02:01:16.990Z,12.20
2017-12-31T02:03:44.540Z,13.47
2017-12-31T02:06:12.819Z,13.33
2017-12-31T02:08:41.589Z,15.43
2017-12-31T02:11:10.011Z,15.03
2017-12-31T02:13:38.692Z,14.93
2017-12-31T02:16:07.414Z,14.23
2017-12-31T02:18:35.036Z,13.40
2017-12-31T02:21:03.531Z,14.17
2017-12-31T02:23:32.450Z,13.73
2017-12-31T02:26:00.829Z,13.63
2017-12-31T02:28:28.559Z,12.27
2017-12-31T02:30:57.105Z,12.30
2017-12-31T02:33:24.859Z,11.30
2017-12-31T02:35:52.469Z,10.80
2017-12-31T02:38:20.818Z,11.60
2017-12-31T02:40:48.962Z,11.93
2017-12-31T02:43:17.040Z,11.80
2017-12-31T02:45:45.098Z,12.30
2017-12-31T02:48:13.077Z,11.00
2017-12-31T02:50:40.951Z,12.00
2017-12-31T02:53:08.932Z,11.20
2017-12-31T02:55:36.765Z,12.30
2017-12-31T02:58:04.296Z,12.23
2017-12-31T03:00:32.572Z,10.90
2017-12-31T03:03:00.881Z,10.77
2017-12-31T03:05:28.430Z,12.70
2017-12-31T03:07:56.815Z,11.20
2017-12-31T03:10:25.085Z,11.00
2017-12-31T03:12:52.637Z,10.63
2017-12-31T03:15:20.398Z,10.50
2017-12-31T03:17:48.963Z,10.87
2017-12-31T03:20:18.087Z,11.27
2017-12-31T03:22:45.740Z,10.60
2017-12-31T03:25:14.602Z,11.00
2017-12-31T03:27:42.299Z,10.30
2017-12-31T03:30:10.036Z,10.17
2017-12-31T03:32:38.666Z,9.93
2017-12-31T03:35:06.987Z,10.33
2017-12-31T03:37:34.857Z,9.70
2017-12-31T03:40:02.612Z,11.00
2017-12-31T03:42:30.674Z,10.27
2017-12-31T03:44:58.599Z,9.80
2017-12-31T03:47:26.160Z,11.23
2017-12-31T03:49:54.230Z,10.70
2017-12-31T03:52:21.807Z,10.80
2017-12-31T03:54:49.648Z,10.27
2017-12-31T03:57:17.349Z,12.20
2017-12-31T03:59:44.963Z,11.47
2017-12-31T04:02:13.522Z,12.30
2017-12-31T04:04:41.048Z,12.53
2017-12-31T04:07:09.111Z,12.60
2017-12-31T04:09:37.819Z,13.33
2017-12-31T04:12:06.084Z,13.07
2017-12-31T04:14:33.816Z,12.33
2017-12-31T04:17:01.467Z,10.13
2017-12-31T04:19:30.180Z,6.80
2017-12-31T04:21:57.823Z,4.10
2017-12-31T04:24:25.471Z,2.13
2017-12-31T04:26:54.139Z,8.37
2017-12-31T04:29:21.698Z,10.10
2017-12-31T04:31:49.388Z,12.07
2017-12-31T04:34:18.178Z,12.23
2017-12-31T04:36:47.639Z,8.07
2017-12-31T04:39:15.234Z,10.80
2017-12-31T04:41:43.972Z,12.07
2017-12-31T04:44:11.761Z,12.70
2017-12-31T04:46:39.307Z,11.50
2017-12-31T04:49:07.623Z,13.80
2017-12-31T04:51:36.635Z,13.57
2017-12-31T04:54:04.421Z,13.67
2017-12-31T04:56:31.982Z,14.70
2017-12-31T04:59:00.036Z,13.93
2017-12-31T05:01:27.743Z,14.30
2017-12-31T05:03:55.293Z,14.03
2017-12-31T05:06:22.990Z,13.70
2017-12-31T05:08:50.803Z,14.53
2017-12-31T05:11:18.539Z,13.97
2017-12-31T05:13:46.991Z,14.10
2017-12-31T05:16:14.706Z,15.20
2017-12-31T05:18:42.371Z,15.10
2017-12-31T05:21:09.910Z,15.40
2017-12-31T05:23:38.260Z,15.87
2017-12-31T05:26:06.304Z,15.07
2017-12-31T05:28:34.148Z,15.67
2017-12-31T05:31:01.946Z,14.37
2017-12-31T05:33:29.742Z,15.93
2017-12-31T05:35:58.537Z,16.10
2017-12-31T05:38:27.286Z,14.30
2017-12-31T05:40:55.042Z,14.37
2017-12-31T05:43:22.767Z,14.97
2017-12-31T05:45:50.331Z,13.83
2017-12-31T05:48:18.215Z,13.40
2017-12-31T05:50:46.037Z,13.67
2017-12-31T05:53:14.564Z,13.63
2017-12-31T05:55:42.389Z,13.10
2017-12-31T05:58:10.692Z,12.20
2017-12-31T06:00:39.584Z,12.60
2017-12-31T06:03:08.080Z,12.40
2017-12-31T06:05:35.717Z,12.87
2017-12-31T06:08:04.554Z,8.83
2017-12-31T06:10:32.245Z,8.63
2017-12-31T06:13:01.898Z,7.67
2017-12-31T06:15:29.718Z,5.00
2017-12-31T06:17:58.476Z,4.67
2017-12-31T06:20:26.545Z,3.27
2017-12-31T06:22:54.564Z,3.47
2017-12-31T06:25:22.853Z,2.50
2017-12-31T06:27:50.740Z,3.13
2017-12-31T06:30:18.557Z,2.43
2017-12-31T06:32:46.450Z,3.03
2017-12-31T06:35:14.234Z,6.80
2017-12-31T06:37:41.849Z,5.17
2017-12-31T06:40:10.323Z,4.03
2017-12-31T06:42:38.435Z,5.40
2017-12-31T06:45:06.054Z,3.30
2017-12-31T06:47:33.963Z,3.50
2017-12-31T06:50:01.851Z,2.33
2017-12-31T06:52:29.863Z,2.90
2017-12-31T06:54:57.906Z,2.50
2017-12-31T06:57:26.112Z,2.07
2017-12-31T06:59:54.511Z,2.50
2017-12-31T07:02:23.279Z,2.40
2017-12-31T07:04:51.248Z,3.30
2017-12-31T07:07:18.814Z,3.10
2017-12-31T07:09:46.654Z,2.40
2017-12-31T07:12:14.691Z,1.70
2017-12-31T07:14:42.254Z,2.20
2017-12-31T07:17:10.028Z,2.30
2017-12-31T07:19:38.306Z,2.50
2017-12-31T07:22:06.100Z,2.07
2017-12-31T07:24:33.945Z,1.87
2017-12-31T07:27:01.657Z,2.00
2017-12-31T07:29:30.254Z,1.63
2017-12-31T07:31:59.923Z,2.70
2017-12-31T07:34:27.869Z,2.47
2017-12-31T07:36:56.054Z,2.33
2017-12-31T07:39:23.582Z,1.97
2017-12-31T07:41:51.766Z,1.37
2017-12-31T07:44:19.643Z,1.87
2017-12-31T07:46:47.987Z,2.00
2017-12-31T07:49:15.537Z,1.60
2017-12-31T07:51:44.329Z,1.90
2017-12-31T07:54:12.614Z,1.80
2017-12-31T07:56:40.871Z,1.70
2017-12-31T07:59:10.229Z,2.10
2017-12-31T08:01:38.015Z,2.03
2017-12-31T08:04:05.808Z,3.50
2017-12-31T08:06:34.631Z,2.00
2017-12-31T08:09:02.174Z,3.17
2017-12-31T08:11:29.931Z,2.70
2017-12-31T08:13:58.826Z,3.53
2017-12-31T08:16:27.280Z,2.60
2017-12-31T08:18:55.632Z,2.07
2017-12-31T08:21:24.238Z,2.37
2017-12-31T08:23:53.138Z,2.17
2017-12-31T08:26:22.280Z,2.50
2017-12-31T08:28:49.880Z,2.90
2017-12-31T08:31:17.647Z,2.87
2017-12-31T08:33:45.496Z,2.10
2017-12-31T08:36:13.228Z,1.83
2017-12-31T08:38:41.288Z,3.67
2017-12-31T08:41:09.329Z,2.60
2017-12-31T08:43:38.031Z,3.03
2017-12-31T08:46:06.694Z,3.87
2017-12-31T08:48:34.995Z,3.10
2017-12-31T08:51:03.898Z,3.23
2017-12-31T08:53:31.503Z,2.00
2017-12-31T08:55:59.261Z,2.30
2017-12-31T08:58:26.930Z,1.97
2017-12-31T09:00:54.486Z,2.33
2017-12-31T09:03:22.263Z,2.10
2017-12-31T09:05:49.977Z,2.10
2017-12-31T09:08:17.548Z,1.97
2017-12-31T09:10:45.465Z,2.37
2017-12-31T09:13:13.160Z,2.13
2017-12-31T09:15:41.736Z,2.20
2017-12-31T09:18:10.481Z,2.00
2017-12-31T09:20:38.105Z,1.77
2017-12-31T09:23:05.766Z,2.27
2017-12-31T09:25:33.302Z,1.80
2017-12-31T09:28:01.630Z,1.70
2017-12-31T09:30:29.855Z,2.00
2017-12-31T09:32:58.681Z,3.10
2017-12-31T09:35:26.587Z,1.73
2017-12-31T09:37:54.325Z,2.17
2017-12-31T09:40:22.073Z,3.50
2017-12-31T09:42:50.111Z,2.47
2017-12-31T09:45:17.842Z,2.50
2017-12-31T09:47:45.979Z,2.53
2017-12-31T09:50:13.821Z,2.60
2017-12-31T09:52:42.523Z,4.80
2017-12-31T09:55:10.953Z,5.00
2017-12-31T09:57:39.172Z,5.33
2017-12-31T10:00:07.254Z,3.03
2017-12-31T10:02:34.782Z,3.43
2017-12-31T10:05:03.741Z,1.93
2017-12-31T10:07:31.519Z,1.90
2017-12-31T10:09:59.395Z,2.80
2017-12-31T10:12:27.564Z,1.73
2017-12-31T10:14:55.968Z,1.83
2017-12-31T10:17:25.234Z,2.10
2017-12-31T10:19:52.808Z,2.20
2017-12-31T10:22:20.726Z,3.07
2017-12-31T10:24:48.454Z,2.40
2017-12-31T10:27:17.182Z,2.20
2017-12-31T10:29:44.771Z,2.30
2017-12-31T10:32:13.824Z,2.00
2017-12-31T10:34:43.926Z,2.03
2017-12-31T10:37:13.471Z,1.53
2017-12-31T10:39:42.596Z,2.20
2017-12-31T10:42:10.599Z,3.03
2017-12-31T10:44:38.901Z,2.37
2017-12-31T10:47:07.352Z,1.90
2017-12-31T10:49:36.227Z,2.03
2017-12-31T10:52:04.282Z,2.90
2017-12-31T10:54:31.798Z,1.70
2017-12-31T10:56:59.440Z,2.20
2017-12-31T10:59:28.167Z,1.90
2017-12-31T11:01:56.547Z,1.80
2017-12-31T11:04:24.817Z,1.97
2017-12-31T11:06:52.550Z,2.63
2017-12-31T11:09:21.775Z,2.70
2017-12-31T11:11:50.017Z,2.83
2017-12-31T11:14:22.491Z,3.90
2017-12-31T11:16:54.476Z,2.60
2017-12-31T11:19:23.368Z,2.90
2017-12-31T11:21:52.534Z,3.10
2017-12-31T11:34:00.901Z,2.30
2017-12-31T11:36:28.571Z,2.80
2017-12-31T11:38:56.144Z,3.47
2017-12-31T11:41:24.835Z,2.40
2017-12-31T11:43:53.379Z,2.87
2017-12-31T11:46:20.955Z,3.23
2017-12-31T11:48:49.468Z,3.20
2017-12-31T11:51:18.362Z,2.40
2017-12-31T11:53:47.585Z,2.33
2017-12-31T11:56:16.003Z,2.03
2017-12-31T11:58:44.765Z,1.67
2017-12-31T12:01:12.363Z,2.17
2017-12-31T12:03:40.669Z,1.90
2017-12-31T12:06:09.108Z,1.63
2017-12-31T12:08:36.648Z,1.80
2017-12-31T12:11:04.465Z,1.40
2017-12-31T12:13:33.761Z,1.23
2017-12-31T12:16:02.180Z,1.53
2017-12-31T12:18:30.573Z,1.40
2017-12-31T12:20:58.297Z,1.40
2017-12-31T12:23:26.834Z,1.17
2017-12-31T12:25:55.185Z,1.40
2017-12-31T12:28:23.183Z,1.20
2017-12-31T12:30:50.757Z,1.43
2017-12-31T12:33:18.954Z,2.50
2017-12-31T12:35:47.826Z,1.33
2017-12-31T12:38:16.815Z,1.57
2017-12-31T12:40:44.711Z,1.23
2017-12-31T12:43:12.283Z,1.30
2017-12-31T12:45:39.862Z,1.80
2017-12-31T12:48:07.609Z,1.30
2017-12-31T12:50:35.329Z,1.50
2017-12-31T12:53:02.898Z,2.00
2017-12-31T12:55:30.625Z,2.13
2017-12-31T12:57:58.311Z,2.47
2017-12-31T13:00:25.975Z,2.40
2017-12-31T13:02:53.584Z,2.30
2017-12-31T13:05:21.487Z,2.97
2017-12-31T13:07:49.322Z,1.57
2017-12-31T13:10:17.095Z,2.03
2017-12-31T13:12:44.944Z,2.10
2017-12-31T13:15:12.656Z,1.83
2017-12-31T13:17:40.302Z,2.27
2017-12-31T13:20:09.044Z,2.40
2017-12-31T13:22:38.028Z,1.60
2017-12-31T13:25:07.299Z,1.90
2017-12-31T13:27:35.768Z,1.73
2017-12-31T13:30:04.119Z,1.60
2017-12-31T13:32:32.036Z,1.70
2017-12-31T13:35:00.341Z,2.17
2017-12-31T13:37:30.215Z,1.90
2017-12-31T13:39:57.912Z,1.60
2017-12-31T13:42:26.881Z,1.37
2017-12-31T13:44:56.480Z,1.77
2017-12-31T13:47:24.095Z,1.60
2017-12-31T13:49:52.265Z,1.77
2017-12-31T13:52:20.110Z,1.97
2017-12-31T13:54:48.836Z,1.43
2017-12-31T13:57:16.417Z,2.13
2017-12-31T13:59:44.197Z,1.70
2017-12-31T14:02:14.137Z,2.50
2017-12-31T14:04:43.746Z,1.93
2017-12-31T14:07:12.109Z,2.00
2017-12-31T14:09:42.092Z,2.60
2017-12-31T14:12:11.458Z,1.67
2017-12-31T14:14:40.626Z,1.90
2017-12-31T14:17:09.412Z,1.67
2017-12-31T14:19:40.835Z,1.93
2017-12-31T14:22:11.287Z,1.80
2017-12-31T14:24:40.375Z,3.10
2017-12-31T14:27:10.558Z,2.23
2017-12-31T14:29:40.178Z,2.40
2017-12-31T14:32:09.748Z,2.10
2017-12-31T14:34:38.558Z,2.60
2017-12-31T14:37:07.237Z,2.50
2017-12-31T14:39:37.711Z,1.70
2017-12-31T14:42:06.928Z,3.00
2017-12-31T14:44:36.583Z,2.30
2017-12-31T14:47:06.771Z,2.40
2017-12-31T14:49:35.852Z,1.90
2017-12-31T14:52:04.042Z,3.00
2017-12-31T14:54:32.936Z,3.60
2017-12-31T14:57:01.746Z,2.37
2017-12-31T14:59:29.360Z,4.40
2017-12-31T15:01:57.422Z,3.37
2017-12-31T15:04:25.719Z,2.10
2017-12-31T15:06:53.341Z,2.10
2017-12-31T15:09:21.024Z,4.13
2017-12-31T15:11:49.617Z,2.37
2017-12-31T15:14:17.658Z,3.50
2017-12-31T15:16:47.321Z,3.77
2017-12-31T15:19:16.235Z,3.60
2017-12-31T15:21:44.333Z,4.07
2017-12-31T15:24:12.043Z,3.23
2017-12-31T15:26:40.334Z,2.10
2017-12-31T15:29:09.077Z,4.03
2017-12-31T15:31:37.563Z,1.60
2017-12-31T15:34:05.235Z,5.40
2017-12-31T15:36:32.852Z,2.10
2017-12-31T15:39:00.590Z,2.80
2017-12-31T15:41:29.326Z,2.57
2017-12-31T15:43:57.951Z,2.53
2017-12-31T15:46:25.555Z,2.30
2017-12-31T15:48:53.279Z,2.73
2017-12-31T15:51:24.567Z,5.03
2017-12-31T15:53:52.298Z,2.90
2017-12-31T15:56:20.929Z,3.30
2017-12-31T15:58:49.174Z,3.10
2017-12-31T16:01:16.931Z,2.97
2017-12-31T16:03:45.216Z,3.70
2017-12-31T16:06:13.403Z,3.20
2017-12-31T16:08:41.088Z,2.90
2017-12-31T16:11:08.651Z,7.60
2017-12-31T16:13:36.391Z,7.40
2017-12-31T16:16:03.983Z,5.30
2017-12-31T16:18:31.594Z,3.40
2017-12-31T16:20:59.280Z,3.80
2017-12-31T16:23:26.931Z,4.90
2017-12-31T16:25:54.631Z,4.90
2017-12-31T16:28:22.403Z,5.03
2017-12-31T16:30:50.778Z,7.20
2017-12-31T16:33:18.767Z,9.23
2017-12-31T16:35:46.420Z,9.27
2017-12-31T16:38:14.004Z,9.63
2017-12-31T16:40:42.706Z,8.10
2017-12-31T16:43:10.479Z,7.60
2017-12-31T16:45:39.272Z,6.80
2017-12-31T16:48:07.128Z,6.30
2017-12-31T16:50:35.619Z,4.80
2017-12-31T16:53:03.212Z,3.80
2017-12-31T16:55:30.882Z,4.07
2017-12-31T16:57:58.832Z,4.40
2017-12-31T17:00:26.672Z,5.13
2017-12-31T17:02:54.429Z,5.20
2017-12-31T17:05:22.015Z,5.00
2017-12-31T17:07:50.495Z,5.53
2017-12-31T17:10:18.225Z,7.23
2017-12-31T17:12:46.555Z,8.40
2017-12-31T17:15:14.970Z,6.53
2017-12-31T17:17:44.608Z,7.30
2017-12-31T17:20:12.626Z,6.83
2017-12-31T17:22:40.204Z,9.67
2017-12-31T17:25:08.814Z,11.77
2017-12-31T17:27:37.005Z,15.83
2017-12-31T17:30:05.512Z,17.80
2017-12-31T17:32:33.374Z,14.23
2017-12-31T17:35:00.959Z,13.53
2017-12-31T17:37:28.552Z,12.50
2017-12-31T17:39:56.837Z,11.50
2017-12-31T17:42:24.448Z,10.70
2017-12-31T17:44:52.140Z,9.90
2017-12-31T17:47:20.667Z,10.00
2017-12-31T17:49:48.377Z,9.87
2017-12-31T17:52:16.480Z,9.27
2017-12-31T17:54:44.067Z,8.73
2017-12-31T17:57:11.831Z,10.67
2017-12-31T17:59:39.479Z,9.43
2017-12-31T18:02:07.168Z,9.07
2017-12-31T18:04:34.717Z,8.33
2017-12-31T18:07:02.634Z,8.50
2017-12-31T18:09:31.157Z,8.83
2017-12-31T18:11:58.995Z,8.63
2017-12-31T18:14:28.694Z,8.63
2017-12-31T18:16:57.528Z,9.37
2017-12-31T18:19:25.433Z,8.73
2017-12-31T18:21:53.162Z,10.07
2017-12-31T18:24:20.719Z,11.07
2017-12-31T18:26:48.527Z,10.13
2017-12-31T18:29:16.202Z,11.00
2017-12-31T18:31:44.965Z,11.17
2017-12-31T18:34:13.014Z,13.33
2017-12-31T18:36:41.282Z,17.70
2017-12-31T18:39:09.011Z,17.57
2017-12-31T18:41:37.747Z,19.20
2017-12-31T18:44:05.288Z,18.03
2017-12-31T18:46:33.053Z,17.40
2017-12-31T18:49:00.609Z,16.67
2017-12-31T18:51:29.980Z,18.27
2017-12-31T18:53:58.287Z,18.50
2017-12-31T18:56:26.705Z,19.30
2017-12-31T18:58:54.250Z,20.27
2017-12-31T19:01:22.606Z,20.13
2017-12-31T19:03:50.936Z,20.67
2017-12-31T19:06:18.500Z,19.17
2017-12-31T19:08:46.089Z,20.07
2017-12-31T19:11:13.647Z,18.90
2017-12-31T19:13:41.371Z,18.83
2017-12-31T19:16:09.276Z,21.10
2017-12-31T19:18:36.858Z,20.37
2017-12-31T19:21:04.732Z,19.43
2017-12-31T19:23:32.282Z,20.10
2017-12-31T19:26:00.332Z,23.17
2017-12-31T19:28:29.090Z,20.60
2017-12-31T19:30:56.617Z,22.30
2017-12-31T19:33:24.343Z,24.17
2017-12-31T19:35:53.765Z,22.50
2017-12-31T19:38:22.259Z,18.40
2017-12-31T19:40:50.070Z,15.60
2017-12-31T19:43:18.826Z,16.03
2017-12-31T19:45:47.083Z,13.03
2017-12-31T19:48:15.488Z,11.93
2017-12-31T19:50:43.622Z,11.97
2017-12-31T19:53:11.195Z,11.90
2017-12-31T19:55:38.977Z,12.67
2017-12-31T19:58:06.703Z,12.20
2017-12-31T20:00:34.394Z,12.83
2017-12-31T20:03:01.959Z,13.97
2017-12-31T20:05:30.396Z,15.10
2017-12-31T20:07:58.117Z,17.00
2017-12-31T20:10:25.714Z,16.93
2017-12-31T20:12:54.642Z,16.43
2017-12-31T20:15:23.016Z,16.20
2017-12-31T20:17:50.580Z,16.57
2017-12-31T20:20:18.240Z,17.53
2017-12-31T20:22:45.831Z,18.70
2017-12-31T20:25:15.211Z,20.20
2017-12-31T20:27:42.854Z,22.10
2017-12-31T20:30:11.256Z,22.73
2017-12-31T20:32:39.300Z,22.97
2017-12-31T20:35:07.490Z,21.63
2017-12-31T20:37:35.397Z,25.50
2017-12-31T20:40:04.391Z,23.50
2017-12-31T20:42:31.986Z,23.70
2017-12-31T20:45:02.372Z,24.03
2017-12-31T20:47:30.551Z,24.50
2017-12-31T20:49:58.858Z,24.50
2017-12-31T20:52:27.213Z,28.20
2017-12-31T20:54:56.798Z,32.37
2017-12-31T20:57:24.396Z,34.00
2017-12-31T20:59:52.299Z,34.50
2017-12-31T21:02:21.375Z,31.47
2017-12-31T21:04:50.109Z,31.00
2017-12-31T21:07:19.716Z,29.90
2017-12-31T21:09:47.597Z,32.50
2017-12-31T21:12:15.791Z,39.33
2017-12-31T21:14:44.658Z,37.80
2017-12-31T21:17:13.905Z,38.07
2017-12-31T21:19:42.671Z,40.73
2017-12-31T21:22:10.999Z,39.97
2017-12-31T21:24:38.716Z,39.60
2017-12-31T21:27:07.094Z,40.60
2017-12-31T21:29:35.953Z,37.40
2017-12-31T21:32:04.754Z,34.13
2017-12-31T21:34:32.318Z,29.40
2017-12-31T21:37:01.363Z,28.40
2017-12-31T21:39:29.446Z,26.87
2017-12-31T21:41:57.913Z,24.17
2017-12-31T21:44:25.611Z,23.97
2017-12-31T21:46:53.863Z,24.13
2017-12-31T21:49:22.153Z,24.23
2017-12-31T21:51:49.958Z,22.40
2017-12-31T21:54:17.475Z,20.53
2017-12-31T21:56:45.624Z,21.63
2017-12-31T21:59:13.960Z,21.60
2017-12-31T22:01:42.142Z,21.40
2017-12-31T22:04:09.699Z,23.10
2017-12-31T22:06:37.491Z,23.27
2017-12-31T22:09:06.266Z,23.80
2017-12-31T22:11:38.987Z,23.97
2017-12-31T22:14:06.719Z,24.47
2017-12-31T22:16:36.274Z,23.27
2017-12-31T22:19:04.126Z,25.73
2017-12-31T22:21:32.020Z,25.63
2017-12-31T22:23:59.677Z,24.00
2017-12-31T22:26:27.276Z,23.77
2017-12-31T22:28:55.000Z,22.80
2017-12-31T22:31:24.462Z,23.83
2017-12-31T22:33:54.688Z,23.53
2017-12-31T22:36:22.489Z,24.23
2017-12-31T22:38:50.355Z,22.27
2017-12-31T22:41:18.429Z,23.93
2017-12-31T22:43:46.011Z,25.30
2017-12-31T22:46:14.013Z,24.70
2017-12-31T22:48:41.625Z,29.17
2017-12-31T22:51:09.851Z,26.53
2017-12-31T22:53:37.940Z,25.00
2017-12-31T22:56:05.508Z,25.77
2017-12-31T22:58:33.175Z,27.17
2017-12-31T23:01:00.741Z,29.30
2017-12-31T23:03:29.717Z,34.10
2017-12-31T23:05:57.388Z,44.30
2017-12-31T23:08:25.094Z,50.63
2017-12-31T23:10:53.608Z,86.73
2017-12-31T23:13:21.934Z,128.93
2017-12-31T23:15:50.527Z,135.87
2017-12-31T23:18:18.714Z,140.23
2017-12-31T23:20:48.560Z,127.23
2017-12-31T23:23:16.358Z,158.33
2017-12-31T23:25:47.075Z,183.00
2017-12-31T23:28:15.719Z,194.13
2017-12-31T23:30:45.568Z,199.90
2017-12-31T23:33:15.569Z,194.93
2017-12-31T23:35:46.509Z,166.23
2017-12-31T23:38:19.293Z,157.40
2017-12-31T23:40:49.830Z,155.17
2017-12-31T23:43:18.240Z,133.43
2017-12-31T23:45:46.208Z,128.87
2017-12-31T23:48:13.786Z,113.47
2017-12-31T23:50:43.591Z,92.33
2017-12-31T23:53:13.709Z,101.33
2017-12-31T23:55:43.037Z,94.73
2017-12-31T23:58:12.756Z,96.10
